createdAt,value
2018-02-24T00:00:06.118Z,-1.80
2018-02-24T00:02:32.482Z,-1.80
2018-02-24T00:04:59.110Z,-1.80
2018-02-24T00:07:25.241Z,-1.80
2018-02-24T00:09:51.413Z,-1.80
2018-02-24T00:12:17.602Z,-1.90
2018-02-24T00:14:43.831Z,-1.90
2018-02-24T00:17:09.993Z,-2.00
2018-02-24T00:19:36.178Z,-2.00
2018-02-24T00:22:02.315Z,-2.00
2018-02-24T00:24:29.282Z,-1.90
2018-02-24T00:26:55.379Z,-2.00
2018-02-24T00:29:23.325Z,-1.80
2018-02-24T00:31:51.234Z,-1.80
2018-02-24T00:34:18.116Z,-1.90
2018-02-24T00:36:44.282Z,-1.90
2018-02-24T00:39:10.471Z,-1.90
2018-02-24T00:41:37.993Z,-1.90
2018-02-24T00:44:04.267Z,-2.00
2018-02-24T00:46:31.117Z,-2.20
2018-02-24T00:48:57.928Z,-2.30
2018-02-24T00:51:24.213Z,-2.40
2018-02-24T00:53:50.397Z,-2.40
2018-02-24T00:56:16.512Z,-2.40
2018-02-24T00:58:43.667Z,-2.30
2018-02-24T01:01:11.074Z,-2.40
2018-02-24T01:03:37.175Z,-2.30
2018-02-24T01:06:03.296Z,-2.40
2018-02-24T01:08:29.446Z,-2.40
2018-02-24T01:10:56.370Z,-2.40
2018-02-24T01:13:22.545Z,-2.50
2018-02-24T01:15:49.442Z,-2.20
2018-02-24T01:18:16.692Z,-2.30
2018-02-24T01:20:43.236Z,-2.30
2018-02-24T01:23:09.751Z,-2.30
2018-02-24T01:25:35.900Z,-2.40
2018-02-24T01:28:02.019Z,-2.50
2018-02-24T01:30:28.146Z,-2.50
2018-02-24T01:32:55.190Z,-2.40
2018-02-24T01:35:21.400Z,-2.50
2018-02-24T01:37:47.646Z,-2.40
2018-02-24T01:40:13.862Z,-2.50
2018-02-24T01:42:41.574Z,-2.50
2018-02-24T01:45:07.792Z,-2.70
2018-02-24T01:47:34.096Z,-2.60
2018-02-24T01:50:00.941Z,-2.40
2018-02-24T01:52:28.191Z,-2.50
2018-02-24T01:54:55.236Z,-2.50
2018-02-24T01:57:22.189Z,-2.50
2018-02-24T01:59:48.369Z,-2.50
2018-02-24T02:02:15.109Z,-2.40
2018-02-24T02:04:41.246Z,-2.40
2018-02-24T02:07:07.408Z,-2.40
2018-02-24T02:09:33.495Z,-2.40
2018-02-24T02:12:00.055Z,-2.40
2018-02-24T02:14:26.919Z,-2.50
2018-02-24T02:16:53.076Z,-2.50
2018-02-24T02:19:19.719Z,-2.70
2018-02-24T02:21:45.823Z,-2.70
2018-02-24T02:24:11.914Z,-2.70
2018-02-24T02:26:38.036Z,-2.90
2018-02-24T02:29:04.160Z,-2.90
2018-02-24T02:31:30.295Z,-2.80
2018-02-24T02:33:57.260Z,-3.00
2018-02-24T02:36:23.321Z,-3.00
2018-02-24T02:38:50.431Z,-3.00
2018-02-24T02:41:16.549Z,-3.10
2018-02-24T02:43:42.666Z,-3.10
2018-02-24T02:46:08.790Z,-3.00
2018-02-24T02:48:35.376Z,-3.00
2018-02-24T02:51:01.556Z,-3.10
2018-02-24T02:53:28.492Z,-2.90
2018-02-24T02:55:54.732Z,-3.00
2018-02-24T02:58:21.723Z,-3.00
2018-02-24T03:00:51.045Z,-3.10
2018-02-24T03:03:17.916Z,-3.10
2018-02-24T03:05:44.457Z,-3.30
2018-02-24T03:08:10.581Z,-3.10
2018-02-24T03:10:37.639Z,-3.10
2018-02-24T03:13:03.751Z,-3.10
2018-02-24T03:15:30.842Z,-3.10
2018-02-24T03:17:57.028Z,-3.10
2018-02-24T03:20:24.083Z,-3.10
2018-02-24T03:22:50.680Z,-3.20
2018-02-24T03:25:17.249Z,-3.10
2018-02-24T03:27:43.319Z,-3.10
2018-02-24T03:30:09.454Z,-3.10
2018-02-24T03:32:35.622Z,-3.00
2018-02-24T03:35:01.736Z,-3.10
2018-02-24T03:37:28.436Z,-3.20
2018-02-24T03:39:54.518Z,-3.20
2018-02-24T03:42:20.651Z,-3.20
2018-02-24T03:44:47.368Z,-3.30
2018-02-24T03:47:14.332Z,-3.00
2018-02-24T03:49:40.514Z,-3.10
2018-02-24T03:52:06.668Z,-3.20
2018-02-24T03:54:33.835Z,-3.30
2018-02-24T03:57:00.371Z,-3.40
2018-02-24T03:59:27.894Z,-3.40
2018-02-24T04:01:55.095Z,-3.40
2018-02-24T04:04:22.064Z,-3.40
2018-02-24T04:06:48.970Z,-3.10
2018-02-24T04:09:16.672Z,-3.10
2018-02-24T04:11:43.548Z,-3.30
2018-02-24T04:14:09.687Z,-3.40
2018-02-24T04:16:36.051Z,-3.30
2018-02-24T04:19:02.255Z,-3.30
2018-02-24T04:21:29.007Z,-3.20
2018-02-24T04:23:55.175Z,-3.20
2018-02-24T04:26:21.320Z,-3.10
2018-02-24T04:28:47.456Z,-3.10
2018-02-24T04:31:15.094Z,-3.40
2018-02-24T04:33:41.258Z,-3.50
2018-02-24T04:36:07.400Z,-3.40
2018-02-24T04:38:34.764Z,-3.30
2018-02-24T04:41:01.946Z,-3.30
2018-02-24T04:43:28.580Z,-3.20
2018-02-24T04:45:54.693Z,-3.30
2018-02-24T04:48:21.583Z,-3.20
2018-02-24T04:50:47.644Z,-3.30
2018-02-24T04:53:14.206Z,-3.40
2018-02-24T04:55:40.273Z,-3.40
2018-02-24T04:58:07.129Z,-3.40
2018-02-24T05:00:33.496Z,-3.30
2018-02-24T05:02:59.709Z,-3.30
2018-02-24T05:05:25.796Z,-3.40
2018-02-24T05:07:51.834Z,-3.40
2018-02-24T05:10:18.033Z,-3.40
2018-02-24T05:12:44.186Z,-3.30
2018-02-24T05:15:10.952Z,-3.50
2018-02-24T05:17:37.757Z,-3.60
2018-02-24T05:20:03.924Z,-3.50
2018-02-24T05:22:30.106Z,-3.40
2018-02-24T05:24:56.282Z,-3.30
2018-02-24T05:27:23.560Z,-3.40
2018-02-24T05:29:49.716Z,-3.40
2018-02-24T05:32:15.935Z,-3.40
2018-02-24T05:34:42.071Z,-3.40
2018-02-24T05:37:08.177Z,-3.30
2018-02-24T05:39:34.325Z,-3.40
2018-02-24T05:42:00.528Z,-3.40
2018-02-24T05:44:26.680Z,-3.50
2018-02-24T05:46:52.775Z,-3.40
2018-02-24T05:49:18.997Z,-3.40
2018-02-24T05:51:45.132Z,-3.50
2018-02-24T05:54:12.164Z,-3.50
2018-02-24T05:56:39.052Z,-3.40
2018-02-24T05:59:05.882Z,-3.30
2018-02-24T06:01:32.729Z,-3.40
2018-02-24T06:03:58.773Z,-3.50
2018-02-24T06:06:25.664Z,-3.50
2018-02-24T06:08:52.612Z,-3.50
2018-02-24T06:11:19.511Z,-3.50
2018-02-24T06:13:45.992Z,-3.50
2018-02-24T06:16:12.318Z,-3.50
2018-02-24T06:18:38.540Z,-3.40
2018-02-24T06:21:06.124Z,-3.50
2018-02-24T06:23:32.413Z,-3.60
2018-02-24T06:25:58.533Z,-3.70
2018-02-24T06:28:25.565Z,-3.70
2018-02-24T06:30:52.742Z,-3.80
2018-02-24T06:33:18.864Z,-3.90
2018-02-24T06:35:45.774Z,-3.80
2018-02-24T06:38:12.282Z,-3.90
2018-02-24T06:40:38.460Z,-3.90
2018-02-24T06:43:04.596Z,-3.80
2018-02-24T06:45:30.724Z,-3.70
2018-02-24T06:47:56.881Z,-3.70
2018-02-24T06:50:23.005Z,-3.70
2018-02-24T06:52:49.174Z,-3.60
2018-02-24T06:55:15.258Z,-3.50
2018-02-24T06:57:41.790Z,-3.40
2018-02-24T07:00:08.020Z,-3.50
2018-02-24T07:02:34.200Z,-3.50
2018-02-24T07:05:00.366Z,-3.50
2018-02-24T07:07:27.258Z,-3.50
2018-02-24T07:09:54.098Z,-3.50
2018-02-24T07:12:20.250Z,-3.60
2018-02-24T07:14:47.578Z,-3.50
2018-02-24T07:17:14.136Z,-3.50
2018-02-24T07:19:40.721Z,-3.50
2018-02-24T07:22:07.559Z,-3.30
2018-02-24T07:24:33.695Z,-3.30
2018-02-24T07:26:59.910Z,-3.20
2018-02-24T07:29:26.029Z,-3.20
2018-02-24T07:31:52.573Z,-3.10
2018-02-24T07:34:18.807Z,-3.00
2018-02-24T07:36:45.721Z,-2.90
2018-02-24T07:39:11.927Z,-2.90
2018-02-24T07:41:38.912Z,-3.00
2018-02-24T07:44:05.152Z,-3.00
2018-02-24T07:46:32.092Z,-2.80
2018-02-24T07:48:59.417Z,-2.70
2018-02-24T07:51:27.081Z,-2.60
2018-02-24T07:53:54.033Z,-2.70
2018-02-24T07:56:20.214Z,-2.70
2018-02-24T07:58:46.250Z,-2.70
2018-02-24T08:01:12.388Z,-2.60
2018-02-24T08:03:38.516Z,-2.50
2018-02-24T08:06:04.543Z,-2.40
2018-02-24T08:08:30.671Z,-2.30
2018-02-24T08:10:56.844Z,-2.40
2018-02-24T08:13:22.982Z,-2.40
2018-02-24T08:15:49.603Z,-2.40
2018-02-24T08:18:19.808Z,-2.10
2018-02-24T08:20:46.002Z,-2.20
2018-02-24T08:23:12.850Z,-2.00
2018-02-24T08:25:39.989Z,-2.00
2018-02-24T08:28:07.698Z,-1.80
2018-02-24T08:30:34.083Z,-1.90
2018-02-24T08:33:00.404Z,-1.90
2018-02-24T08:35:26.495Z,-1.80
2018-02-24T08:37:53.146Z,-1.60
2018-02-24T08:40:19.444Z,-1.50
2018-02-24T08:42:45.640Z,-1.40
2018-02-24T08:45:12.380Z,-1.30
2018-02-24T08:47:38.649Z,-1.30
2018-02-24T08:50:04.876Z,-1.20
2018-02-24T08:52:31.112Z,-1.00
2018-02-24T08:54:57.254Z,-0.90
2018-02-24T08:57:31.323Z,-0.60
2018-02-24T08:59:57.968Z,-0.70
2018-02-24T09:02:24.242Z,-0.50
2018-02-24T09:04:51.376Z,-0.60
2018-02-24T09:07:17.466Z,-0.60
2018-02-24T09:09:43.516Z,-0.40
2018-02-24T09:12:10.638Z,-0.10
2018-02-24T09:14:37.178Z,0.10
2018-02-24T09:17:03.317Z,0.30
2018-02-24T09:19:29.479Z,0.20
2018-02-24T09:21:57.701Z,0.30
2018-02-24T09:24:23.945Z,0.50
2018-02-24T09:26:50.807Z,0.80
2018-02-24T09:29:17.134Z,0.70
2018-02-24T09:31:43.578Z,0.80
2018-02-24T09:34:10.423Z,1.10
2018-02-24T09:36:37.542Z,1.30
2018-02-24T09:39:03.658Z,1.20
2018-02-24T09:41:29.780Z,1.30
2018-02-24T09:43:55.895Z,1.30
2018-02-24T09:46:22.224Z,1.40
2018-02-24T09:48:48.808Z,1.50
2018-02-24T09:51:14.893Z,1.70
2018-02-24T09:53:41.170Z,1.60
2018-02-24T09:56:07.355Z,1.80
2018-02-24T09:58:33.506Z,2.00
2018-02-24T10:01:01.468Z,1.90
2018-02-24T10:03:27.908Z,1.90
2018-02-24T10:05:55.130Z,1.90
2018-02-24T10:08:21.601Z,1.90
2018-02-24T10:10:48.142Z,2.20
2018-02-24T10:13:14.371Z,2.40
2018-02-24T10:15:40.587Z,2.60
2018-02-24T10:18:08.596Z,2.90
2018-02-24T10:20:35.409Z,2.90
2018-02-24T10:23:01.627Z,3.10
2018-02-24T10:25:28.256Z,3.20
2018-02-24T10:27:54.594Z,3.30
2018-02-24T10:30:21.499Z,3.40
2018-02-24T10:32:48.085Z,3.50
2018-02-24T10:35:14.323Z,3.60
2018-02-24T10:37:41.981Z,3.80
2018-02-24T10:40:15.281Z,3.80
2018-02-24T10:42:41.450Z,3.90
2018-02-24T10:45:08.282Z,4.10
2018-02-24T10:47:36.267Z,4.00
2018-02-24T10:50:03.164Z,4.00
2018-02-24T10:52:30.115Z,4.30
2018-02-24T10:57:30.854Z,4.50
2018-02-24T10:59:57.096Z,4.40
2018-02-24T11:02:23.488Z,4.40
2018-02-24T11:04:51.403Z,4.30
2018-02-24T11:07:18.821Z,4.30
2018-02-24T11:09:46.602Z,4.40
2018-02-24T11:12:13.834Z,4.40
2018-02-24T11:14:41.321Z,4.70
2018-02-24T11:17:08.211Z,4.70
2018-02-24T11:19:34.445Z,4.90
2018-02-24T11:22:00.905Z,4.80
2018-02-24T11:24:27.040Z,4.80
2018-02-24T11:26:53.186Z,4.80
2018-02-24T11:29:20.066Z,5.20
2018-02-24T11:31:46.282Z,5.10
2018-02-24T11:34:13.327Z,5.10
2018-02-24T11:36:39.547Z,5.20
2018-02-24T11:39:06.548Z,5.30
2018-02-24T11:41:32.699Z,5.20
2018-02-24T11:43:58.875Z,5.50
2018-02-24T11:46:25.120Z,5.40
2018-02-24T11:48:52.694Z,5.40
2018-02-24T11:51:19.188Z,5.30
2018-02-24T11:53:45.410Z,5.60
2018-02-24T11:56:11.992Z,5.80
2018-02-24T11:58:39.205Z,6.10
2018-02-24T12:01:05.675Z,6.00
2018-02-24T12:03:32.826Z,6.00
2018-02-24T12:05:58.954Z,6.00
2018-02-24T12:08:26.097Z,5.80
2018-02-24T12:10:54.228Z,5.80
2018-02-24T12:13:20.423Z,5.70
2018-02-24T12:15:47.631Z,5.90
2018-02-24T12:18:13.882Z,6.00
2018-02-24T12:20:40.245Z,5.80
2018-02-24T12:23:06.646Z,5.90
2018-02-24T12:25:32.837Z,6.10
2018-02-24T12:27:58.978Z,6.10
2018-02-24T12:30:25.440Z,5.90
2018-02-24T12:32:51.667Z,5.90
2018-02-24T12:35:17.978Z,5.90
2018-02-24T12:37:44.606Z,6.00
2018-02-24T12:40:11.450Z,6.20
2018-02-24T12:42:37.678Z,6.20
2018-02-24T12:45:04.040Z,6.20
2018-02-24T12:47:30.875Z,5.40
2018-02-24T12:49:57.075Z,5.40
2018-02-24T12:52:23.276Z,5.60
2018-02-24T12:54:49.410Z,5.70
2018-02-24T12:57:15.622Z,5.90
2018-02-24T12:59:41.821Z,6.10
2018-02-24T13:02:08.163Z,6.10
2018-02-24T13:04:34.988Z,5.90
2018-02-24T13:07:01.209Z,5.90
2018-02-24T13:09:28.607Z,6.20
2018-02-24T13:11:54.885Z,6.50
2018-02-24T13:14:21.794Z,6.60
2018-02-24T13:16:49.415Z,6.50
2018-02-24T13:19:16.468Z,6.50
2018-02-24T13:21:42.684Z,6.40
2018-02-24T13:24:10.175Z,6.40
2018-02-24T13:26:36.762Z,6.30
2018-02-24T13:29:03.047Z,6.30
2018-02-24T13:31:30.926Z,6.40
2018-02-24T13:33:57.111Z,6.40
2018-02-24T13:36:23.592Z,6.30
2018-02-24T13:38:49.903Z,6.10
2018-02-24T13:41:18.151Z,6.20
2018-02-24T13:43:44.587Z,6.10
2018-02-24T13:46:13.130Z,6.20
2018-02-24T13:48:40.724Z,6.40
2018-02-24T13:51:07.359Z,6.40
2018-02-24T13:53:34.538Z,6.40
2018-02-24T13:56:00.920Z,6.10
2018-02-24T13:58:28.206Z,5.80
2018-02-24T14:00:54.549Z,5.70
2018-02-24T14:03:21.423Z,5.70
2018-02-24T14:05:47.862Z,5.80
2018-02-24T14:08:14.648Z,6.10
2018-02-24T14:10:40.928Z,6.40
2018-02-24T14:13:07.299Z,6.20
2018-02-24T14:15:33.550Z,6.00
2018-02-24T14:18:00.023Z,5.90
2018-02-24T14:20:26.823Z,5.90
2018-02-24T14:22:54.135Z,5.40
2018-02-24T14:25:20.351Z,5.40
2018-02-24T14:27:46.572Z,5.20
2018-02-24T14:30:12.848Z,5.30
2018-02-24T14:32:39.091Z,5.50
2018-02-24T14:35:05.213Z,5.30
2018-02-24T14:37:31.954Z,5.30
2018-02-24T14:39:58.234Z,5.40
2018-02-24T14:42:25.228Z,5.50
2018-02-24T14:44:52.134Z,5.40
2018-02-24T14:47:19.730Z,5.70
2018-02-24T14:49:46.006Z,5.70
2018-02-24T14:52:13.106Z,5.70
2018-02-24T14:54:39.295Z,5.60
2018-02-24T14:57:05.603Z,5.50
2018-02-24T14:59:31.777Z,5.70
2018-02-24T15:01:57.920Z,5.70
2018-02-24T15:04:24.085Z,5.60
2018-02-24T15:06:50.216Z,5.50
2018-02-24T15:09:16.498Z,5.40
2018-02-24T15:11:44.472Z,5.30
2018-02-24T15:14:10.731Z,5.30
2018-02-24T15:16:36.941Z,5.10
2018-02-24T15:19:04.702Z,5.10
2018-02-24T15:21:34.171Z,5.00
2018-02-24T15:24:00.320Z,4.90
2018-02-24T15:26:26.473Z,4.80
2018-02-24T15:28:52.720Z,4.70
2018-02-24T15:31:19.421Z,4.20
2018-02-24T15:33:48.021Z,4.00
2018-02-24T15:36:15.416Z,3.80
2018-02-24T15:38:41.774Z,3.70
2018-02-24T15:41:09.465Z,3.80
2018-02-24T15:43:36.082Z,3.70
2018-02-24T15:46:02.599Z,3.60
2018-02-24T15:48:29.710Z,3.50
2018-02-24T15:50:55.994Z,3.40
2018-02-24T15:53:22.282Z,3.30
2018-02-24T15:55:48.497Z,3.30
2018-02-24T15:58:14.690Z,3.20
2018-02-24T16:00:42.207Z,3.20
2018-02-24T16:03:09.097Z,3.20
2018-02-24T16:05:36.193Z,3.00
2018-02-24T16:08:03.539Z,2.80
2018-02-24T16:10:30.469Z,2.70
2018-02-24T16:12:56.657Z,2.60
2018-02-24T16:15:24.278Z,2.70
2018-02-24T16:17:50.623Z,2.70
2018-02-24T16:20:17.627Z,2.70
2018-02-24T16:22:43.785Z,2.90
2018-02-24T16:25:11.707Z,3.60
2018-02-24T16:27:38.824Z,3.40
2018-02-24T16:30:06.167Z,3.80
2018-02-24T16:32:32.356Z,4.10
2018-02-24T16:34:58.863Z,3.90
2018-02-24T16:37:26.176Z,3.20
2018-02-24T16:39:52.755Z,3.20
2018-02-24T16:42:19.003Z,3.10
2018-02-24T16:44:45.966Z,2.60
2018-02-24T16:47:12.232Z,2.60
2018-02-24T16:49:41.202Z,2.50
2018-02-24T16:52:07.791Z,2.50
2018-02-24T16:54:34.907Z,2.50
2018-02-24T16:57:01.650Z,2.20
2018-02-24T16:59:27.872Z,2.10
2018-02-24T17:01:53.982Z,2.00
2018-02-24T17:04:20.075Z,1.90
2018-02-24T17:06:46.239Z,1.90
2018-02-24T17:09:13.090Z,1.80
2018-02-24T17:11:46.754Z,1.80
2018-02-24T17:14:12.880Z,1.70
2018-02-24T17:16:39.610Z,1.60
2018-02-24T17:19:06.140Z,1.60
2018-02-24T17:21:33.013Z,1.40
2018-02-24T17:23:59.438Z,1.30
2018-02-24T17:26:25.835Z,1.50
2018-02-24T17:28:52.723Z,1.40
2018-02-24T17:31:18.870Z,1.30
2018-02-24T17:33:45.349Z,1.40
2018-02-24T17:36:11.538Z,1.40
2018-02-24T17:38:37.930Z,1.40
2018-02-24T17:41:04.754Z,1.40
2018-02-24T17:43:30.895Z,1.40
2018-02-24T17:45:57.155Z,1.30
2018-02-24T17:48:25.880Z,1.30
2018-02-24T17:50:52.101Z,1.30
2018-02-24T17:53:19.433Z,1.30
2018-02-24T17:55:46.309Z,1.30
2018-02-24T17:58:12.531Z,1.20
2018-02-24T18:00:39.454Z,1.20
2018-02-24T18:03:06.665Z,1.10
2018-02-24T18:05:33.385Z,1.20
2018-02-24T18:07:59.538Z,1.20
2018-02-24T18:10:27.613Z,1.20
2018-02-24T18:12:53.833Z,1.20
2018-02-24T18:15:20.025Z,1.10
2018-02-24T18:17:46.408Z,1.10
2018-02-24T18:20:12.553Z,1.10
2018-02-24T18:22:38.682Z,1.10
2018-02-24T18:25:05.527Z,1.00
2018-02-24T18:27:31.778Z,1.00
2018-02-24T18:30:00.241Z,1.00
2018-02-24T18:32:27.608Z,0.90
2018-02-24T18:34:54.347Z,0.90
2018-02-24T18:37:21.426Z,0.90
2018-02-24T18:39:48.028Z,0.90
2018-02-24T18:42:14.109Z,0.90
2018-02-24T18:44:40.414Z,0.90
2018-02-24T18:47:06.598Z,0.90
2018-02-24T18:49:32.662Z,0.90
2018-02-24T18:52:00.493Z,0.90
2018-02-24T18:54:26.932Z,0.80
2018-02-24T18:56:53.093Z,0.90
2018-02-24T18:59:19.288Z,0.90
2018-02-24T19:01:46.008Z,0.80
2018-02-24T19:04:12.166Z,0.70
2018-02-24T19:06:38.303Z,0.70
2018-02-24T19:09:04.289Z,0.70
2018-02-24T19:11:31.272Z,0.70
2018-02-24T19:13:57.427Z,0.70
2018-02-24T19:16:23.500Z,0.70
2018-02-24T19:21:22.413Z,0.60
2018-02-24T19:23:48.547Z,0.70
2018-02-24T19:26:14.972Z,0.60
2018-02-24T19:28:41.080Z,0.60
2018-02-24T19:31:07.125Z,0.60
2018-02-24T19:33:33.960Z,0.50
2018-02-24T19:36:00.004Z,0.50
2018-02-24T19:38:26.872Z,0.40
2018-02-24T19:40:53.172Z,0.40
2018-02-24T19:43:20.188Z,0.50
2018-02-24T19:45:46.359Z,0.40
2018-02-24T19:48:12.555Z,0.40
2018-02-24T19:50:38.661Z,0.40
2018-02-24T19:53:04.795Z,0.30
2018-02-24T19:55:32.103Z,0.30
2018-02-24T19:57:58.197Z,0.30
2018-02-24T20:00:25.049Z,0.40
2018-02-24T20:02:51.311Z,0.30
2018-02-24T20:05:17.401Z,0.30
2018-02-24T20:07:43.396Z,0.30
2018-02-24T20:10:09.474Z,0.30
2018-02-24T20:12:35.649Z,0.30
2018-02-24T20:15:01.792Z,0.30
2018-02-24T20:17:28.930Z,0.30
2018-02-24T20:19:57.095Z,0.20
2018-02-24T20:22:23.221Z,0.20
2018-02-24T20:24:49.270Z,0.20
2018-02-24T20:27:15.401Z,0.20
2018-02-24T20:29:41.400Z,0.20
2018-02-24T20:32:07.754Z,0.10
2018-02-24T20:34:33.818Z,0.10
2018-02-24T20:37:00.667Z,0.10
2018-02-24T20:39:26.754Z,0.10
2018-02-24T20:41:53.182Z,0.10
2018-02-24T20:44:20.161Z,0.00
2018-02-24T20:46:46.313Z,0.10
2018-02-24T20:49:12.426Z,0.10
2018-02-24T20:51:38.458Z,0.00
2018-02-24T20:54:05.035Z,0.00
2018-02-24T20:56:31.145Z,0.00
2018-02-24T20:58:57.999Z,-0.10
2018-02-24T21:01:24.927Z,-0.10
2018-02-24T21:03:51.672Z,-0.10
2018-02-24T21:06:18.647Z,-0.10
2018-02-24T21:08:45.408Z,-0.20
2018-02-24T21:11:12.370Z,-0.20
2018-02-24T21:13:38.501Z,-0.20
2018-02-24T21:16:04.709Z,-0.20
2018-02-24T21:18:30.933Z,-0.20
2018-02-24T21:20:57.106Z,-0.20
2018-02-24T21:23:23.166Z,-0.20
2018-02-24T21:25:49.635Z,-0.10
2018-02-24T21:28:17.125Z,-0.20
2018-02-24T21:30:43.646Z,-0.20
2018-02-24T21:33:09.755Z,-0.20
2018-02-24T21:35:36.799Z,-0.40
2018-02-24T21:38:03.366Z,-0.40
2018-02-24T21:40:30.156Z,-0.40
2018-02-24T21:42:56.655Z,-0.50
2018-02-24T21:45:23.492Z,-0.50
2018-02-24T21:47:49.570Z,-0.50
2018-02-24T21:50:15.687Z,-0.50
2018-02-24T21:52:41.807Z,-0.50
2018-02-24T21:55:08.978Z,-0.50
2018-02-24T21:57:35.071Z,-0.60
2018-02-24T22:00:01.257Z,-0.70
2018-02-24T22:02:27.378Z,-0.70
2018-02-24T22:04:54.759Z,-0.70
2018-02-24T22:07:20.960Z,-0.80
2018-02-24T22:09:47.401Z,-0.70
2018-02-24T22:12:13.563Z,-0.70
2018-02-24T22:14:39.701Z,-0.70
2018-02-24T22:17:05.928Z,-0.70
2018-02-24T22:19:32.051Z,-0.80
2018-02-24T22:21:58.127Z,-0.80
2018-02-24T22:24:25.222Z,-0.80
2018-02-24T22:26:51.536Z,-0.80
2018-02-24T22:29:17.680Z,-0.90
2018-02-24T22:31:44.913Z,-0.90
2018-02-24T22:34:12.091Z,-1.00
2018-02-24T22:36:39.212Z,-1.00
2018-02-24T22:39:07.895Z,-1.00
2018-02-24T22:41:34.839Z,-1.00
2018-02-24T22:44:03.187Z,-1.00
2018-02-24T22:46:30.194Z,-1.10
2018-02-24T22:49:00.383Z,-1.10
2018-02-24T22:51:26.621Z,-1.10
2018-02-24T22:53:53.674Z,-1.10
2018-02-24T22:56:20.763Z,-1.10
2018-02-24T22:58:46.867Z,-1.10
2018-02-24T23:01:14.746Z,-1.10
2018-02-24T23:03:41.139Z,-1.20
2018-02-24T23:06:07.370Z,-1.20
2018-02-24T23:08:33.502Z,-1.20
2018-02-24T23:11:00.550Z,-1.20
2018-02-24T23:13:26.773Z,-1.30
2018-02-24T23:15:54.078Z,-1.30
2018-02-24T23:18:20.561Z,-1.30
2018-02-24T23:20:48.350Z,-1.40
2018-02-24T23:23:14.784Z,-1.40
2018-02-24T23:25:42.026Z,-1.40
2018-02-24T23:28:09.484Z,-1.50
2018-02-24T23:30:36.281Z,-1.50
2018-02-24T23:33:02.832Z,-1.60
2018-02-24T23:35:29.063Z,-1.60
2018-02-24T23:37:55.246Z,-1.60
2018-02-24T23:40:22.181Z,-1.60
2018-02-24T23:42:48.328Z,-1.70
2018-02-24T23:45:15.260Z,-1.60
2018-02-24T23:47:42.243Z,-1.60
2018-02-24T23:50:08.343Z,-1.60
2018-02-24T23:52:35.235Z,-1.60
2018-02-24T23:55:01.372Z,-1.70
2018-02-24T23:57:27.850Z,-1.70
2018-02-24T23:59:54.127Z,-1.70
